Terminal Aerodrome Forecast
Issued by NWS Caribou, ME

Home | Current Version | Previous Version | Text Only | Print | Product List | Glossary On
Versions: 1 2 3 4 5 6 7 8 9 10 11 12 13 14 15
000
FTUS41 KCAR 281120
TAFBGR
TAF
KBGR 281120Z 2812/2912 00000KT P6SM BKN250
     FM281900 18008KT 3SM BR VCTS BKN080CB
     FM290000 00000KT P6SM OVC250
     FM290400 00000KT 2SM BR BKN100=

USA.gov is the U.S. government's official web portal to all federal, state and local government web resources and services.